Time;durP1;ratioP1;P1;durP2;ratioP2;P2;SDS_P1;SDS_P2;PMS_P1;PMS_P2;Temp;Humidity;BMP_temperature;BMP_pressure;BME280_temperature;BME280_humidity;BME280_pressure;Samples;Min_cycle;Max_cycle;Signal;HPM_P1;HPM_P2
2023/04/21 00:00:07;;;;;;;25.05;16.73;;;9.00;99.90;;;;;;5010188;28;20041;-71
2023/04/21 00:02:33;;;;;;;21.83;15.85;;;8.90;99.90;;;;;;5008781;28;20447;-71
2023/04/21 00:04:59;;;;;;;23.75;16.23;;;8.90;99.90;;;;;;5007366;28;20030;-72
2023/04/21 00:07:24;;;;;;;25.65;16.63;;;8.90;99.90;;;;;;5007541;28;20033;-72
2023/04/21 00:09:50;;;;;;;24.95;16.73;;;8.90;99.90;;;;;;5011696;28;20464;-72
2023/04/21 00:12:15;;;;;;;24.90;16.10;;;8.90;99.90;;;;;;5003322;28;20030;-71
2023/04/21 00:14:41;;;;;;;26.83;16.98;;;8.90;99.90;;;;;;5012088;28;20040;-72
2023/04/21 00:17:07;;;;;;;22.77;15.82;;;8.90;99.90;;;;;;5010423;28;20389;-71
2023/04/21 00:19:34;;;;;;;24.40;16.20;;;8.80;99.90;;;;;;5005585;28;20393;-71
2023/04/21 00:22:00;;;;;;;24.77;17.15;;;8.80;99.90;;;;;;5007472;28;20050;-71
2023/04/21 00:24:25;;;;;;;26.60;16.83;;;8.80;99.90;;;;;;5010575;28;20030;-71
2023/04/21 00:26:51;;;;;;;27.15;16.67;;;8.80;99.90;;;;;;5011147;28;20706;-71
2023/04/21 00:29:17;;;;;;;27.95;17.52;;;8.80;99.90;;;;;;5004051;28;20034;-71
2023/04/21 00:31:42;;;;;;;27.95;17.50;;;8.80;99.90;;;;;;5012105;28;20469;-72
2023/04/21 00:34:08;;;;;;;26.50;17.80;;;8.80;99.90;;;;;;5006341;28;20385;-73
2023/04/21 00:36:34;;;;;;;28.10;17.20;;;8.80;99.90;;;;;;5007150;28;20109;-71
2023/04/21 00:38:59;;;;;;;27.02;17.50;;;8.80;99.90;;;;;;5011771;28;20025;-73
2023/04/21 00:41:27;;;;;;;26.65;17.70;;;8.80;99.90;;;;;;5011651;28;20537;-71
2023/04/21 00:44:07;;;;;;;29.35;17.77;;;8.80;99.90;;;;;;5011367;28;20455;-72
2023/04/21 00:46:34;;;;;;;27.85;17.23;;;8.80;99.90;;;;;;5011465;28;20026;-73
2023/04/21 00:49:02;;;;;;;30.77;18.45;;;8.70;99.90;;;;;;5011233;28;20034;-72
2023/04/21 00:51:28;;;;;;;28.23;17.02;;;8.70;99.90;;;;;;5012250;28;20022;-72
2023/04/21 00:53:55;;;;;;;27.77;17.95;;;8.70;99.90;;;;;;5003083;28;20023;-72
2023/04/21 00:56:21;;;;;;;30.63;18.20;;;8.70;99.90;;;;;;5009103;28;20443;-72
2023/04/21 00:58:48;;;;;;;29.40;18.80;;;8.70;99.90;;;;;;5011405;28;20034;-71
2023/04/21 01:01:13;;;;;;;29.30;18.95;;;8.70;99.90;;;;;;4999581;28;20092;-72
2023/04/21 01:03:40;;;;;;;30.13;18.83;;;8.70;99.90;;;;;;5011754;28;20018;-72
2023/04/21 01:06:06;;;;;;;33.97;19.42;;;8.70;99.90;;;;;;5012066;28;20022;-71
2023/04/21 01:08:32;;;;;;;32.15;19.15;;;8.70;99.90;;;;;;5010911;28;20030;-72
2023/04/21 01:10:58;;;;;;;34.15;19.48;;;8.70;99.90;;;;;;5007384;28;20345;-71
2023/04/21 01:13:23;;;;;;;30.83;19.52;;;8.70;99.90;;;;;;5008936;28;20026;-72
2023/04/21 01:15:49;;;;;;;31.92;18.85;;;8.70;99.90;;;;;;5009921;28;20153;-73
2023/04/21 01:18:17;;;;;;;32.72;20.35;;;8.70;99.90;;;;;;5010115;28;20385;-73
2023/04/21 01:20:43;;;;;;;33.38;19.98;;;8.70;99.90;;;;;;5010087;28;20417;-72
2023/04/21 01:23:09;;;;;;;34.28;20.25;;;8.70;99.90;;;;;;5001837;28;20105;-72
2023/04/21 01:25:35;;;;;;;32.97;19.85;;;8.70;99.90;;;;;;5001542;28;20029;-72
2023/04/21 01:28:01;;;;;;;36.33;21.15;;;8.70;99.90;;;;;;5010850;28;20030;-72
2023/04/21 01:30:27;;;;;;;34.72;20.77;;;8.70;99.90;;;;;;4996326;28;20508;-72
2023/04/21 01:32:57;;;;;;;33.47;20.23;;;8.70;99.90;;;;;;5005449;28;20018;-72
2023/04/21 01:35:23;;;;;;;37.92;20.73;;;8.70;99.90;;;;;;5008078;28;20018;-72
2023/04/21 01:37:48;;;;;;;34.55;20.90;;;8.80;99.90;;;;;;5008500;28;20060;-72
2023/04/21 01:40:14;;;;;;;36.20;21.30;;;8.80;99.90;;;;;;5010521;28;20112;-72
2023/04/21 01:42:42;;;;;;;35.40;21.90;;;8.70;99.90;;;;;;5010820;28;20080;-72
2023/04/21 01:45:08;;;;;;;39.15;21.25;;;8.80;99.90;;;;;;5011456;28;20113;-73
2023/04/21 01:47:33;;;;;;;36.08;21.83;;;8.70;99.90;;;;;;5009349;28;20030;-72
2023/04/21 01:49:59;;;;;;;35.35;21.25;;;8.70;99.90;;;;;;5010549;28;20044;-72
2023/04/21 01:52:25;;;;;;;39.25;22.45;;;8.70;99.90;;;;;;5010942;28;20022;-72
2023/04/21 01:54:50;;;;;;;37.47;22.33;;;8.70;99.90;;;;;;5007099;28;20081;-72
2023/04/21 01:57:17;;;;;;;40.00;22.58;;;8.70;99.90;;;;;;4997668;28;20038;-72
2023/04/21 01:59:43;;;;;;;35.47;21.60;;;8.70;99.90;;;;;;5010006;28;20489;-73
2023/04/21 02:02:08;;;;;;;36.35;21.48;;;8.70;99.90;;;;;;5009994;28;20041;-72
2023/04/21 02:04:34;;;;;;;35.13;20.73;;;8.70;99.90;;;;;;5008909;28;20022;-72
2023/04/21 02:07:00;;;;;;;34.50;20.67;;;8.70;99.90;;;;;;5002487;28;20069;-72
2023/04/21 02:09:26;;;;;;;33.92;20.88;;;8.70;99.90;;;;;;5009812;28;20073;-72
2023/04/21 02:11:52;;;;;;;34.83;20.85;;;8.70;99.90;;;;;;5009751;28;20499;-72
2023/04/21 02:14:18;;;;;;;40.45;21.88;;;8.70;99.90;;;;;;5009957;28;20022;-71
2023/04/21 02:16:43;;;;;;;36.25;21.77;;;8.70;99.90;;;;;;5011049;28;20026;-72
2023/04/21 02:19:09;;;;;;;38.33;21.58;;;8.70;99.90;;;;;;4999527;28;20045;-72
2023/04/21 02:21:35;;;;;;;37.70;21.23;;;8.70;99.90;;;;;;5009862;28;20045;-73
2023/04/21 02:24:00;;;;;;;38.13;20.80;;;8.70;99.90;;;;;;5002981;28;20026;-72
2023/04/21 02:26:26;;;;;;;36.72;21.35;;;8.70;99.90;;;;;;4996932;28;20700;-72
2023/04/21 02:28:51;;;;;;;34.97;20.90;;;8.70;99.90;;;;;;5002786;28;20021;-72
2023/04/21 02:31:17;;;;;;;36.40;21.17;;;8.70;99.90;;;;;;5008577;28;20501;-71
2023/04/21 02:33:43;;;;;;;36.20;21.13;;;8.70;99.90;;;;;;4996568;28;20022;-71
2023/04/21 02:36:09;;;;;;;35.22;21.25;;;8.70;99.90;;;;;;5012599;28;20352;-71
2023/04/21 02:38:35;;;;;;;34.47;20.77;;;8.70;99.90;;;;;;5007978;28;20033;-71
2023/04/21 02:41:01;;;;;;;37.67;22.23;;;8.70;99.90;;;;;;5013076;28;20726;-71
2023/04/21 02:43:26;;;;;;;35.92;21.95;;;8.70;99.90;;;;;;5015419;28;20026;-71
2023/04/21 02:45:52;;;;;;;36.40;21.55;;;8.60;99.90;;;;;;5012346;28;20386;-72
2023/04/21 02:48:21;;;;;;;37.05;21.35;;;8.70;99.90;;;;;;5006520;28;20010;-72
2023/04/21 02:50:48;;;;;;;36.17;21.27;;;8.70;99.90;;;;;;5010599;28;20076;-72
2023/04/21 02:53:14;;;;;;;36.35;21.70;;;8.70;99.90;;;;;;5002998;28;20033;-71
2023/04/21 02:55:39;;;;;;;37.45;21.75;;;8.70;99.90;;;;;;5013540;28;20026;-71
2023/04/21 02:58:06;;;;;;;34.78;20.40;;;8.70;99.90;;;;;;5012499;28;20378;-71
2023/04/21 03:00:31;;;;;;;34.67;21.35;;;8.70;99.90;;;;;;5009364;28;20357;-71
2023/04/21 03:02:57;;;;;;;33.38;20.60;;;8.70;99.90;;;;;;5002306;28;20026;-72
2023/04/21 03:05:23;;;;;;;34.75;20.80;;;8.70;99.90;;;;;;5011275;28;20365;-72
2023/04/21 03:07:49;;;;;;;35.13;20.48;;;8.70;99.90;;;;;;5010218;28;20026;-72
2023/04/21 03:10:15;;;;;;;34.42;20.88;;;8.70;99.90;;;;;;5006389;28;20065;-72
2023/04/21 03:12:41;;;;;;;33.15;20.75;;;8.70;99.90;;;;;;5013030;28;20065;-72
2023/04/21 03:15:07;;;;;;;33.70;20.90;;;8.70;99.90;;;;;;5013601;28;20096;-72
2023/04/21 03:17:33;;;;;;;36.58;20.95;;;8.70;99.90;;;;;;5013474;28;20368;-72
2023/04/21 03:19:58;;;;;;;36.25;22.05;;;8.70;99.90;;;;;;5012162;28;20026;-72
2023/04/21 03:22:24;;;;;;;35.92;22.08;;;8.80;99.90;;;;;;4998730;28;20056;-72
2023/04/21 03:24:50;;;;;;;37.67;21.83;;;8.80;99.90;;;;;;5010723;28;20017;-72
2023/04/21 03:27:16;;;;;;;40.67;22.98;;;8.80;99.90;;;;;;5012326;28;20028;-72
2023/04/21 03:29:41;;;;;;;39.63;22.65;;;8.80;99.90;;;;;;5011703;28;20026;-72
2023/04/21 03:32:07;;;;;;;44.42;24.73;;;8.80;99.90;;;;;;5005827;28;20029;-72
2023/04/21 03:34:32;;;;;;;40.10;24.05;;;8.70;99.90;;;;;;5010215;28;20060;-72
2023/04/21 03:36:58;;;;;;;43.63;24.90;;;8.80;99.90;;;;;;5013137;28;20041;-72
2023/04/21 03:39:23;;;;;;;44.00;25.55;;;8.70;99.90;;;;;;5012707;28;20030;-72
2023/04/21 03:41:49;;;;;;;48.80;25.98;;;8.80;99.90;;;;;;5014300;28;20033;-72
2023/04/21 03:44:15;;;;;;;41.83;25.02;;;8.70;99.90;;;;;;5013499;28;20101;-72
2023/04/21 03:46:40;;;;;;;44.97;26.67;;;8.70;99.90;;;;;;5013854;28;20049;-72
2023/04/21 03:49:06;;;;;;;46.28;26.17;;;8.70;99.90;;;;;;5013565;28;20526;-72
2023/04/21 03:51:31;;;;;;;47.58;27.02;;;8.70;99.90;;;;;;5008430;28;20084;-72
2023/04/21 03:53:58;;;;;;;51.72;29.08;;;8.70;99.90;;;;;;5013318;28;20350;-70
2023/04/21 03:56:23;;;;;;;51.17;28.30;;;8.70;99.90;;;;;;5010365;28;20420;-71
2023/04/21 03:58:49;;;;;;;53.83;29.48;;;8.70;99.90;;;;;;5011293;28;20027;-71
2023/04/21 04:01:15;;;;;;;53.95;29.17;;;8.70;99.90;;;;;;5011220;28;20114;-71
2023/04/21 04:03:40;;;;;;;45.00;26.42;;;8.70;99.90;;;;;;5004780;28;20014;-71
2023/04/21 04:06:06;;;;;;;48.38;27.10;;;8.70;99.90;;;;;;5012573;28;20511;-71
2023/04/21 04:08:32;;;;;;;46.20;26.23;;;8.70;99.90;;;;;;5012955;28;20097;-71
2023/04/21 04:10:57;;;;;;;49.72;27.70;;;8.70;99.90;;;;;;5004850;28;20133;-71
2023/04/21 04:13:25;;;;;;;48.30;26.80;;;8.70;99.90;;;;;;5008033;28;20022;-71
2023/04/21 04:15:51;;;;;;;50.67;28.33;;;8.60;99.90;;;;;;5007821;28;20408;-71
2023/04/21 04:18:16;;;;;;;49.83;27.90;;;8.60;99.90;;;;;;5008280;28;20385;-72
2023/04/21 04:20:42;;;;;;;52.28;29.27;;;8.60;99.90;;;;;;5007493;28;20023;-72
2023/04/21 04:23:08;;;;;;;56.78;31.67;;;8.60;99.90;;;;;;5015483;28;20053;-71
2023/04/21 04:25:33;;;;;;;53.13;28.92;;;8.60;99.90;;;;;;5008762;28;20034;-72
2023/04/21 04:27:59;;;;;;;54.25;30.23;;;8.60;99.90;;;;;;5013249;28;20029;-72
2023/04/21 04:30:27;;;;;;;50.80;28.42;;;8.60;99.90;;;;;;5012599;28;20085;-71
2023/04/21 04:32:53;;;;;;;53.72;30.10;;;8.60;99.90;;;;;;5012148;28;20432;-71
2023/04/21 04:35:18;;;;;;;57.15;30.73;;;8.60;99.90;;;;;;5012214;28;20026;-71
2023/04/21 04:37:44;;;;;;;59.53;33.85;;;8.60;99.90;;;;;;5010045;28;20026;-71
2023/04/21 04:40:11;;;;;;;56.25;31.55;;;8.60;99.90;;;;;;5013926;28;20061;-71
2023/04/21 04:42:38;;;;;;;55.65;30.80;;;8.60;99.90;;;;;;5013668;28;20051;-71
2023/04/21 04:45:05;;;;;;;56.92;31.77;;;8.60;99.90;;;;;;5012212;28;20052;-71
2023/04/21 04:47:30;;;;;;;57.80;31.35;;;8.60;99.90;;;;;;5010675;28;20080;-72
2023/04/21 04:49:56;;;;;;;61.42;32.47;;;8.60;99.90;;;;;;5012398;28;20026;-72
2023/04/21 04:52:21;;;;;;;61.47;33.08;;;8.60;99.90;;;;;;5012831;28;20428;-70
2023/04/21 04:54:47;;;;;;;58.33;31.08;;;8.60;99.90;;;;;;5013338;28;20109;-72
2023/04/21 04:57:12;;;;;;;59.38;30.13;;;8.60;99.90;;;;;;5011849;28;20437;-70
2023/04/21 04:59:38;;;;;;;51.92;29.95;;;8.60;99.90;;;;;;5012021;28;20029;-71
2023/04/21 05:02:04;;;;;;;52.25;29.65;;;8.60;99.90;;;;;;5012283;28;20111;-72
2023/04/21 05:04:29;;;;;;;54.35;29.50;;;8.60;99.90;;;;;;5012407;28;20372;-71
2023/04/21 05:06:55;;;;;;;56.60;30.40;;;8.60;99.90;;;;;;5011212;28;20526;-71
2023/04/21 05:09:20;;;;;;;55.55;30.05;;;8.60;99.90;;;;;;5012390;28;20061;-71
2023/04/21 05:11:46;;;;;;;54.05;30.15;;;8.60;99.90;;;;;;5011857;28;20085;-71
2023/04/21 05:14:12;;;;;;;55.63;31.17;;;8.60;99.90;;;;;;5013688;28;20055;-72
2023/04/21 05:16:37;;;;;;;55.15;31.10;;;8.60;99.90;;;;;;5013786;28;20046;-72
2023/04/21 05:19:03;;;;;;;56.15;30.02;;;8.70;99.90;;;;;;5006910;28;20460;-71
2023/04/21 05:21:30;;;;;;;51.75;29.17;;;8.70;99.90;;;;;;5005764;28;20500;-72
2023/04/21 05:23:57;;;;;;;56.03;30.40;;;8.70;99.90;;;;;;5009235;28;20076;-71
2023/04/21 05:26:23;;;;;;;53.03;29.63;;;8.70;99.90;;;;;;5011482;28;20389;-70
2023/04/21 05:28:49;;;;;;;54.58;29.92;;;8.70;99.90;;;;;;5011378;28;20100;-71
2023/04/21 05:31:15;;;;;;;56.83;31.58;;;8.70;99.90;;;;;;5005165;28;20025;-71
2023/04/21 05:33:41;;;;;;;60.03;32.58;;;8.70;99.90;;;;;;5011971;28;20028;-71
2023/04/21 05:36:10;;;;;;;54.55;30.65;;;8.80;99.90;;;;;;5011722;28;20018;-71
2023/04/21 05:38:37;;;;;;;54.67;30.70;;;8.80;99.90;;;;;;5010403;28;20030;-71
2023/04/21 05:41:03;;;;;;;53.83;31.20;;;8.80;99.90;;;;;;5010117;28;20026;-71
2023/04/21 05:43:32;;;;;;;57.72;32.03;;;8.80;99.90;;;;;;5010610;28;20036;-71
2023/04/21 05:45:58;;;;;;;58.15;32.65;;;8.80;99.90;;;;;;5010793;28;20034;-71
2023/04/21 05:48:24;;;;;;;59.25;32.72;;;8.90;99.90;;;;;;5009806;28;20030;-71
2023/04/21 05:50:49;;;;;;;58.10;32.72;;;8.90;99.90;;;;;;5008144;28;20036;-71
2023/04/21 05:53:15;;;;;;;60.88;33.50;;;8.90;99.90;;;;;;5004328;28;20029;-72
2023/04/21 05:55:41;;;;;;;60.50;33.08;;;8.90;99.90;;;;;;5010244;28;20048;-72
2023/04/21 05:58:06;;;;;;;59.47;33.85;;;8.90;99.90;;;;;;5009275;28;20109;-71
2023/04/21 06:00:32;;;;;;;61.55;33.45;;;9.00;99.90;;;;;;5008194;28;20030;-71
2023/04/21 06:02:58;;;;;;;61.83;34.38;;;9.00;99.90;;;;;;5010414;28;20056;-70
2023/04/21 06:05:23;;;;;;;62.03;34.65;;;9.00;99.90;;;;;;5009234;28;20105;-71
2023/04/21 06:07:49;;;;;;;62.20;34.72;;;9.00;99.90;;;;;;5009361;28;20053;-71
2023/04/21 06:10:16;;;;;;;61.75;34.53;;;9.00;99.90;;;;;;5009522;28;20048;-71
2023/04/21 06:12:42;;;;;;;63.33;35.60;;;9.10;99.90;;;;;;5010467;28;20025;-71
2023/04/21 06:15:08;;;;;;;63.45;36.25;;;9.10;99.90;;;;;;5010061;28;20026;-71
2023/04/21 06:17:34;;;;;;;66.60;36.53;;;9.10;99.90;;;;;;5010312;28;20018;-71
2023/04/21 06:19:59;;;;;;;62.97;35.95;;;9.10;99.90;;;;;;5009657;28;20080;-71
2023/04/21 06:22:26;;;;;;;66.55;35.60;;;9.20;99.90;;;;;;5010310;28;20022;-71
2023/04/21 06:24:52;;;;;;;65.53;36.92;;;9.20;99.90;;;;;;5011527;28;20093;-71
2023/04/21 06:27:18;;;;;;;66.05;36.30;;;9.20;99.90;;;;;;5011547;28;20049;-71
2023/04/21 06:29:43;;;;;;;61.55;35.35;;;9.20;99.90;;;;;;5010666;28;20026;-71
2023/04/21 06:32:10;;;;;;;61.13;35.40;;;9.20;99.90;;;;;;5011554;28;20030;-71
2023/04/21 06:34:35;;;;;;;63.58;35.13;;;9.30;99.90;;;;;;5009694;28;20018;-71
2023/04/21 06:37:01;;;;;;;67.05;37.25;;;9.30;99.90;;;;;;5011301;28;20093;-71
2023/04/21 06:39:27;;;;;;;64.10;35.90;;;9.30;99.90;;;;;;5011158;28;20528;-70
2023/04/21 06:41:53;;;;;;;64.75;36.30;;;9.30;99.90;;;;;;5011683;28;20038;-71
2023/04/21 06:44:18;;;;;;;64.30;36.47;;;9.40;99.90;;;;;;5009988;28;20057;-70
2023/04/21 06:46:44;;;;;;;63.33;36.60;;;9.40;99.90;;;;;;5012380;28;20048;-70
2023/04/21 06:49:10;;;;;;;64.85;36.70;;;9.40;99.90;;;;;;5002499;28;20037;-70
2023/04/21 06:51:36;;;;;;;66.45;38.03;;;9.40;99.90;;;;;;5012000;28;20105;-70
2023/04/21 06:54:02;;;;;;;65.10;37.30;;;9.40;99.90;;;;;;5011808;28;20061;-70
2023/04/21 06:56:29;;;;;;;65.80;37.30;;;9.40;99.90;;;;;;5012312;28;20061;-71
2023/04/21 06:58:55;;;;;;;68.15;37.83;;;9.40;99.90;;;;;;5010933;28;20025;-71
2023/04/21 07:01:23;;;;;;;66.97;38.45;;;9.50;99.90;;;;;;5010726;28;20087;-71
2023/04/21 07:03:49;;;;;;;72.00;39.88;;;9.40;99.90;;;;;;5009772;28;20079;-71
2023/04/21 07:06:14;;;;;;;68.50;39.92;;;9.50;99.90;;;;;;5010281;28;20479;-70
2023/04/21 07:08:40;;;;;;;67.65;38.67;;;9.50;99.90;;;;;;5009648;28;20021;-71
2023/04/21 07:11:06;;;;;;;65.65;38.45;;;9.50;99.90;;;;;;5009273;28;20060;-70
2023/04/21 07:13:31;;;;;;;71.43;40.28;;;9.50;99.90;;;;;;5009493;28;20519;-71
2023/04/21 07:15:57;;;;;;;68.65;39.03;;;9.50;99.90;;;;;;5009633;28;20033;-71
2023/04/21 07:18:23;;;;;;;64.60;38.25;;;9.40;99.90;;;;;;5009440;28;20049;-71
2023/04/21 07:20:48;;;;;;;64.75;38.17;;;9.50;99.90;;;;;;4999562;28;20236;-71
2023/04/21 07:23:14;;;;;;;68.00;38.60;;;9.50;99.90;;;;;;5013180;28;20089;-70
2023/04/21 07:25:39;;;;;;;71.82;39.92;;;9.50;99.90;;;;;;5012026;28;20060;-71
2023/04/21 07:28:05;;;;;;;72.95;40.88;;;9.50;99.90;;;;;;5013015;28;20534;-70
2023/04/21 07:30:31;;;;;;;75.50;42.10;;;9.50;99.90;;;;;;5013648;28;20029;-71
2023/04/21 07:32:57;;;;;;;75.75;41.80;;;9.60;99.90;;;;;;5015547;28;20022;-70
2023/04/21 07:35:23;;;;;;;74.75;41.92;;;9.60;99.90;;;;;;5014970;28;20022;-71
2023/04/21 07:37:50;;;;;;;74.47;41.00;;;9.60;99.90;;;;;;5014419;28;20113;-71
2023/04/21 07:40:15;;;;;;;74.00;42.08;;;9.70;99.90;;;;;;5014524;28;20298;-71
2023/04/21 07:42:41;;;;;;;76.65;41.28;;;9.70;99.90;;;;;;5015640;28;20117;-70
2023/04/21 07:45:07;;;;;;;72.38;41.15;;;9.70;99.90;;;;;;5015692;28;20083;-70
2023/04/21 07:47:33;;;;;;;78.35;42.90;;;9.70;99.90;;;;;;5015694;28;20742;-71
2023/04/21 07:49:59;;;;;;;79.05;43.83;;;9.80;99.90;;;;;;5014825;28;20137;-71
2023/04/21 07:52:25;;;;;;;72.32;42.20;;;9.90;99.90;;;;;;5014705;28;20101;-71
2023/04/21 07:54:50;;;;;;;76.57;43.95;;;10.00;99.90;;;;;;5014363;28;20120;-72
2023/04/21 07:57:16;;;;;;;71.53;42.38;;;10.00;99.90;;;;;;5013740;28;20026;-71
2023/04/21 07:59:42;;;;;;;71.70;41.45;;;10.10;99.90;;;;;;5004069;28;20363;-71
2023/04/21 08:02:08;;;;;;;69.25;41.35;;;10.20;99.90;;;;;;5010682;28;20500;-71
2023/04/21 08:04:33;;;;;;;67.75;41.47;;;10.30;99.90;;;;;;5013625;28;20081;-71
2023/04/21 08:06:59;;;;;;;71.50;41.42;;;10.30;99.90;;;;;;5013042;28;20025;-71
2023/04/21 08:09:26;;;;;;;69.07;41.45;;;10.40;99.90;;;;;;5013437;28;20115;-71
2023/04/21 08:11:51;;;;;;;67.07;40.28;;;10.50;99.90;;;;;;5013827;28;20064;-70
2023/04/21 08:14:18;;;;;;;68.32;42.10;;;10.60;99.90;;;;;;5013360;28;20433;-71
2023/04/21 08:16:44;;;;;;;65.97;41.00;;;10.70;99.90;;;;;;5013553;28;20400;-71
2023/04/21 08:19:09;;;;;;;66.85;41.03;;;10.80;99.90;;;;;;5013492;28;20022;-71
2023/04/21 08:21:35;;;;;;;67.35;41.03;;;10.90;99.90;;;;;;5013927;28;20013;-70
2023/04/21 08:24:01;;;;;;;65.55;41.00;;;11.00;99.90;;;;;;5012323;28;20274;-71
2023/04/21 08:26:28;;;;;;;66.63;41.45;;;11.20;99.90;;;;;;5013392;28;20053;-71
2023/04/21 08:28:55;;;;;;;61.10;39.60;;;11.30;99.90;;;;;;5013068;28;20026;-71
2023/04/21 08:31:21;;;;;;;61.92;40.33;;;11.50;99.90;;;;;;5012516;28;20018;-71
2023/04/21 08:33:47;;;;;;;59.30;37.40;;;11.60;99.90;;;;;;5013787;28;20029;-71
2023/04/21 08:36:13;;;;;;;60.10;38.88;;;11.60;99.90;;;;;;5013314;28;20036;-71
2023/04/21 08:38:42;;;;;;;63.65;40.13;;;11.70;99.90;;;;;;5013539;28;20030;-71
2023/04/21 08:41:08;;;;;;;64.55;40.97;;;11.70;99.90;;;;;;5013331;28;20029;-71
2023/04/21 08:43:34;;;;;;;62.00;41.10;;;11.80;99.90;;;;;;5013903;28;20030;-71
2023/04/21 08:46:04;;;;;;;61.20;38.75;;;12.00;99.90;;;;;;5013432;28;20052;-71
2023/04/21 08:48:31;;;;;;;59.03;39.08;;;12.10;99.90;;;;;;5012102;28;20072;-71
2023/04/21 08:50:57;;;;;;;59.22;39.80;;;12.20;99.90;;;;;;5013585;28;20022;-71
2023/04/21 08:53:23;;;;;;;58.10;37.50;;;12.30;99.90;;;;;;5012593;28;20052;-72
2023/04/21 08:55:52;;;;;;;57.67;39.03;;;12.30;99.90;;;;;;5013375;28;20091;-72
2023/04/21 08:58:21;;;;;;;58.03;38.58;;;12.30;99.90;;;;;;5012976;28;20104;-72
2023/04/21 09:00:47;;;;;;;55.50;37.30;;;12.40;99.90;;;;;;5012832;28;20020;-72
2023/04/21 09:03:12;;;;;;;57.22;38.10;;;12.40;99.90;;;;;;5012536;28;20022;-71
2023/04/21 09:05:38;;;;;;;57.10;38.30;;;12.50;99.90;;;;;;5013014;28;20069;-71
2023/04/21 09:08:15;;;;;;;56.35;38.22;;;12.50;99.90;;;;;;5012900;28;20024;-71
2023/04/21 09:10:51;;;;;;;53.83;36.60;;;12.60;99.90;;;;;;5014175;28;20061;-71
2023/04/21 09:13:18;;;;;;;49.67;34.75;;;12.70;99.90;;;;;;5013113;28;20034;-71
2023/04/21 09:15:53;;;;;;;48.80;33.58;;;12.80;99.90;;;;;;5012696;28;20026;-71
2023/04/21 09:18:21;;;;;;;51.20;35.28;;;12.80;99.90;;;;;;5012455;28;20072;-72
2023/04/21 09:20:49;;;;;;;45.22;32.28;;;12.90;99.90;;;;;;5012427;28;20034;-72
2023/04/21 09:23:16;;;;;;;46.45;32.60;;;13.10;99.90;;;;;;5011803;28;20030;-73
2023/04/21 09:25:43;;;;;;;42.08;30.75;;;13.20;99.90;;;;;;5012164;28;20468;-73
2023/04/21 09:28:13;;;;;;;40.55;29.20;;;13.30;99.90;;;;;;4999149;28;20033;-72
2023/04/21 09:30:41;;;;;;;39.92;28.88;;;13.30;99.90;;;;;;5012063;28;20675;-73
2023/04/21 09:33:14;;;;;;;41.65;30.40;;;13.40;99.90;;;;;;5012434;28;20038;-73
2023/04/21 09:35:40;;;;;;;43.38;29.75;;;13.60;99.90;;;;;;5010583;28;20108;-73
2023/04/21 09:38:12;;;;;;;39.03;28.15;;;13.70;99.90;;;;;;5011939;28;20100;-73
2023/04/21 09:40:39;;;;;;;38.05;27.85;;;13.70;99.90;;;;;;5011379;28;20052;-73
2023/04/21 09:43:05;;;;;;;41.35;28.77;;;13.70;99.90;;;;;;5011669;28;20029;-73
2023/04/21 09:45:32;;;;;;;37.92;27.92;;;13.70;99.90;;;;;;5011366;28;20033;-73
2023/04/21 09:48:00;;;;;;;34.13;26.02;;;13.70;99.90;;;;;;5012749;28;20519;-72
2023/04/21 09:50:27;;;;;;;37.90;26.90;;;13.90;99.90;;;;;;5010528;28;20105;-72
2023/04/21 09:52:54;;;;;;;38.03;27.73;;;13.90;99.90;;;;;;5011930;28;20037;-73
2023/04/21 09:55:25;;;;;;;38.65;27.52;;;13.80;99.90;;;;;;5012794;28;20115;-72
2023/04/21 09:57:59;;;;;;;35.72;26.52;;;13.90;99.90;;;;;;5011933;28;20422;-73
2023/04/21 10:00:29;;;;;;;35.53;26.02;;;13.90;99.90;;;;;;5011162;28;20492;-73
2023/04/21 10:02:59;;;;;;;36.70;26.02;;;13.90;99.90;;;;;;5011705;28;20112;-73
2023/04/21 10:05:25;;;;;;;37.88;26.88;;;13.90;99.90;;;;;;5011531;28;20026;-73
2023/04/21 10:07:51;;;;;;;35.58;26.48;;;14.00;99.90;;;;;;4999522;28;20022;-73
2023/04/21 10:10:26;;;;;;;35.85;25.92;;;14.00;99.90;;;;;;5004902;28;20050;-73
2023/04/21 10:12:52;;;;;;;24.93;18.93;;;14.10;99.90;;;;;;5006407;28;20108;-72
2023/04/21 10:15:39;;;;;;;35.03;25.58;;;14.00;99.90;;;;;;5011959;28;20053;-73
2023/04/21 10:18:16;;;;;;;34.05;24.10;;;14.00;99.90;;;;;;5010891;28;20022;-74
2023/04/21 10:20:56;;;;;;;31.38;23.20;;;14.00;99.90;;;;;;5012105;28;20496;-73
2023/04/21 10:23:40;;;;;;;30.90;23.70;;;14.00;99.90;;;;;;5000300;28;20079;-73
2023/04/21 10:26:11;;;;;;;32.03;23.60;;;14.10;99.90;;;;;;5010850;28;20025;-73
2023/04/21 10:28:51;;;;;;;30.25;22.60;;;14.10;99.90;;;;;;5011550;28;20029;-73
2023/04/21 10:31:21;;;;;;;30.20;21.80;;;14.10;99.90;;;;;;4999656;28;20105;-73
2023/04/21 10:34:09;;;;;;;30.98;21.98;;;14.10;99.90;;;;;;5011841;28;20435;-73
2023/04/21 10:36:47;;;;;;;33.05;23.10;;;14.20;99.90;;;;;;5005779;28;20444;-72
2023/04/21 10:39:34;;;;;;;30.63;22.48;;;14.30;99.90;;;;;;5010618;28;20025;-71
2023/04/21 10:42:12;;;;;;;34.60;23.58;;;14.40;99.90;;;;;;5011187;28;20022;-72
2023/04/21 10:44:50;;;;;;;32.03;21.92;;;14.60;99.90;;;;;;5011828;28;20425;-72
2023/04/21 10:47:28;;;;;;;30.70;21.23;;;14.70;99.90;;;;;;5011610;28;20434;-71
2023/04/21 10:49:58;;;;;;;27.63;19.95;;;14.80;99.90;;;;;;5010243;28;20030;-71
2023/04/21 10:52:33;;;;;;;25.77;18.95;;;14.90;99.90;;;;;;5009612;28;20033;-72
2023/04/21 10:54:59;;;;;;;27.42;19.35;;;15.00;99.90;;;;;;5012911;28;20038;-70
2023/04/21 10:57:24;;;;;;;25.92;19.58;;;15.10;99.90;;;;;;5014709;28;20030;-71
2023/04/21 10:59:50;;;;;;;26.60;19.50;;;15.20;99.90;;;;;;5014850;28;20113;-71
2023/04/21 11:02:17;;;;;;;26.27;20.85;;;15.30;99.90;;;;;;5016164;28;20496;-71
2023/04/21 11:04:46;;;;;;;26.83;20.63;;;15.40;99.90;;;;;;5015443;28;20018;-71
2023/04/21 11:07:16;;;;;;;26.42;20.58;;;15.60;99.90;;;;;;5015163;28;20076;-71
2023/04/21 11:09:43;;;;;;;25.80;19.40;;;15.90;99.90;;;;;;5014977;28;20045;-71
2023/04/21 11:12:14;;;;;;;26.80;19.23;;;16.10;99.90;;;;;;5015578;28;20040;-71
2023/04/21 11:14:43;;;;;;;23.98;19.10;;;16.30;99.90;;;;;;5015559;28;20117;-69
2023/04/21 11:17:14;;;;;;;23.92;18.33;;;16.50;99.90;;;;;;5013645;28;20061;-71
2023/04/21 11:19:40;;;;;;;22.80;18.20;;;16.60;99.90;;;;;;5012731;28;20030;-70
2023/04/21 11:22:06;;;;;;;24.90;19.67;;;16.80;99.90;;;;;;5011267;28;20053;-71
2023/04/21 11:24:32;;;;;;;26.08;19.75;;;16.90;99.90;;;;;;5012560;28;20029;-70
2023/04/21 11:27:00;;;;;;;24.98;18.23;;;17.10;99.90;;;;;;5012065;28;20022;-71
2023/04/21 11:29:28;;;;;;;23.67;17.50;;;17.20;99.90;;;;;;5013430;28;20469;-71
2023/04/21 11:31:54;;;;;;;23.45;17.23;;;17.30;99.90;;;;;;5014031;28;20014;-71
2023/04/21 11:34:20;;;;;;;20.73;17.02;;;17.30;99.90;;;;;;5011147;28;20125;-71
2023/04/21 11:36:47;;;;;;;25.45;18.92;;;17.30;99.90;;;;;;5014769;28;20076;-72
2023/04/21 11:39:15;;;;;;;23.42;17.95;;;17.40;99.90;;;;;;5014599;28;20021;-72
2023/04/21 11:41:43;;;;;;;21.00;17.27;;;17.40;99.90;;;;;;5014677;28;20017;-73
2023/04/21 11:44:11;;;;;;;21.10;17.05;;;17.50;99.90;;;;;;5010950;28;20072;-71
2023/04/21 11:46:42;;;;;;;22.45;18.33;;;17.70;99.90;;;;;;5014717;28;20084;-71
2023/04/21 11:49:14;;;;;;;22.30;17.80;;;17.80;99.90;;;;;;5012727;28;20030;-71
2023/04/21 11:51:41;;;;;;;25.92;19.83;;;17.90;99.90;;;;;;5013291;28;20424;-72
2023/04/21 11:54:11;;;;;;;25.35;20.08;;;17.90;99.90;;;;;;5013531;28;20143;-71
2023/04/21 11:56:42;;;;;;;25.15;19.85;;;17.90;99.90;;;;;;5013840;28;20018;-71
2023/04/21 11:59:15;;;;;;;27.08;20.50;;;17.80;99.90;;;;;;5014058;28;20021;-73
2023/04/21 12:01:48;;;;;;;23.70;18.92;;;17.70;99.90;;;;;;5014504;28;20029;-71
2023/04/21 12:04:24;;;;;;;23.38;19.05;;;17.60;99.90;;;;;;5015472;28;20101;-69
2023/04/21 12:07:01;;;;;;;23.52;19.05;;;17.60;99.90;;;;;;5015504;28;20030;-68
2023/04/21 12:09:28;;;;;;;23.02;18.35;;;17.70;99.90;;;;;;5015237;28;20450;-70
2023/04/21 12:11:56;;;;;;;23.00;17.83;;;17.70;99.90;;;;;;5015501;28;20100;-70
2023/04/21 12:14:23;;;;;;;25.38;18.50;;;17.80;99.90;;;;;;5014979;28;20022;-70
2023/04/21 12:16:54;;;;;;;24.13;18.13;;;17.80;99.90;;;;;;5007384;28;20080;-72
2023/04/21 12:19:41;;;;;;;24.45;19.00;;;17.80;99.90;;;;;;5015208;28;20350;-72
2023/04/21 12:22:08;;;;;;;25.77;18.95;;;17.80;99.90;;;;;;5013825;28;20477;-71
2023/04/21 12:24:34;;;;;;;22.75;18.60;;;17.70;99.90;;;;;;5012183;28;20014;-71
2023/04/21 12:27:00;;;;;;;23.08;18.90;;;17.40;99.90;;;;;;5012753;28;20431;-72
2023/04/21 12:29:26;;;;;;;23.83;18.55;;;17.40;99.90;;;;;;5012747;28;20049;-72
2023/04/21 12:31:51;;;;;;;25.40;19.38;;;17.30;99.90;;;;;;5012618;28;20026;-72